Portada
METAR-TAF:

METAR-TAF

Aeroports :

Jaffrey, Nova Hampshire, Estats Units d'Amèrica

latitud: 42-48-21N, longitud: 072-00-02W, altitud: 317 m

Observació

L'informe es va fer fa 41 minuts, a les 13:52 UTC
Vent 6 kt amb direcció variable
Temperatura 0°C
Humitat 86%
Pressió 1014 hPa
Visibilitat: 9.7 km
Cel cobert a una alçada de 700 ft
boirina

METAR: KAFN 181352Z AUTO VRB06KT 6SM BR OVC007 00/M02 A2993 RMK AO2 CIG 005V010 SLP152 T00001022

Hora: 09:33 (14:33 UTC)


TAF: manca

Observacions i pronòstics meteorològics de més de 4000 aeroports (METAR i TAF).

Les estacions disponibles són els punts grocs i vermells al mapa.

Posi el ratolí al punt desitjat per veure el nom de l'estació.

Feu clic per veure les observacions i els pronòstics meteorològics.

Per canviar el mapa: feu clic els botons verds amb una creu de color negre per apropar; al botó verd amb un guió per allunyar la imatge; o en les fletxes verdes per a mapes adjacents.


METAR-TAF: